sensor_id;sensor_type;location;lat;lon;timestamp;temperature;humidity
24176;DHT22;12324;48.146;11.502;2022-08-19T00:01:34;17.90;99.90
24176;DHT22;12324;48.146;11.502;2022-08-19T00:04:05;17.90;99.90
24176;DHT22;12324;48.146;11.502;2022-08-19T00:06:34;17.90;99.90
24176;DHT22;12324;48.146;11.502;2022-08-19T00:09:03;17.90;99.90
24176;DHT22;12324;48.146;11.502;2022-08-19T00:11:30;17.90;99.90
24176;DHT22;12324;48.146;11.502;2022-08-19T00:13:57;18.00;99.90
24176;DHT22;12324;48.146;11.502;2022-08-19T00:16:25;18.00;99.90
24176;DHT22;12324;48.146;11.502;2022-08-19T00:18:53;18.00;99.90
24176;DHT22;12324;48.146;11.502;2022-08-19T00:21:25;18.00;99.90
24176;DHT22;12324;48.146;11.502;2022-08-19T00:23:54;18.00;99.90
24176;DHT22;12324;48.146;11.502;2022-08-19T00:26:21;18.00;99.90
24176;DHT22;12324;48.146;11.502;2022-08-19T00:28:48;18.00;99.90
24176;DHT22;12324;48.146;11.502;2022-08-19T00:31:15;18.00;99.90
24176;DHT22;12324;48.146;11.502;2022-08-19T00:33:43;18.00;99.90
24176;DHT22;12324;48.146;11.502;2022-08-19T00:36:10;18.10;99.90
24176;DHT22;12324;48.146;11.502;2022-08-19T00:38:38;18.10;99.90
24176;DHT22;12324;48.146;11.502;2022-08-19T00:41:14;18.10;99.90
24176;DHT22;12324;48.146;11.502;2022-08-19T00:43:41;18.10;99.90
24176;DHT22;12324;48.146;11.502;2022-08-19T00:46:08;18.10;99.90
24176;DHT22;12324;48.146;11.502;2022-08-19T00:48:35;18.10;99.90
24176;DHT22;12324;48.146;11.502;2022-08-19T00:51:04;18.20;99.90
24176;DHT22;12324;48.146;11.502;2022-08-19T00:53:32;18.10;99.90
24176;DHT22;12324;48.146;11.502;2022-08-19T00:56:01;18.10;99.90
24176;DHT22;12324;48.146;11.502;2022-08-19T00:58:31;18.10;99.90
24176;DHT22;12324;48.146;11.502;2022-08-19T01:01:00;18.10;99.90
24176;DHT22;12324;48.146;11.502;2022-08-19T01:03:27;18.00;99.90
24176;DHT22;12324;48.146;11.502;2022-08-19T01:06:14;18.00;99.90
24176;DHT22;12324;48.146;11.502;2022-08-19T01:08:45;18.10;99.90
24176;DHT22;12324;48.146;11.502;2022-08-19T01:11:15;18.00;99.90
24176;DHT22;12324;48.146;11.502;2022-08-19T01:13:43;18.10;99.90
24176;DHT22;12324;48.146;11.502;2022-08-19T01:16:17;18.00;99.90
24176;DHT22;12324;48.146;11.502;2022-08-19T01:18:44;18.00;99.90
24176;DHT22;12324;48.146;11.502;2022-08-19T01:21:26;17.90;99.90
24176;DHT22;12324;48.146;11.502;2022-08-19T01:23:54;17.90;99.90
24176;DHT22;12324;48.146;11.502;2022-08-19T01:26:24;18.00;99.90
24176;DHT22;12324;48.146;11.502;2022-08-19T01:28:53;17.90;99.90
24176;DHT22;12324;48.146;11.502;2022-08-19T01:31:28;17.90;99.90
24176;DHT22;12324;48.146;11.502;2022-08-19T01:33:59;17.90;99.90
24176;DHT22;12324;48.146;11.502;2022-08-19T01:36:35;17.90;99.90
24176;DHT22;12324;48.146;11.502;2022-08-19T01:39:06;17.90;99.90
24176;DHT22;12324;48.146;11.502;2022-08-19T01:41:34;17.90;99.90
24176;DHT22;12324;48.146;11.502;2022-08-19T01:44:01;18.00;99.90
24176;DHT22;12324;48.146;11.502;2022-08-19T01:46:46;18.00;99.90
24176;DHT22;12324;48.146;11.502;2022-08-19T01:49:14;18.00;99.90
24176;DHT22;12324;48.146;11.502;2022-08-19T01:51:42;18.00;99.90
24176;DHT22;12324;48.146;11.502;2022-08-19T01:54:10;18.10;99.90
24176;DHT22;12324;48.146;11.502;2022-08-19T01:56:37;18.10;99.90
24176;DHT22;12324;48.146;11.502;2022-08-19T01:59:12;18.10;99.90
24176;DHT22;12324;48.146;11.502;2022-08-19T02:01:39;18.10;99.90
24176;DHT22;12324;48.146;11.502;2022-08-19T02:04:07;18.10;99.90
24176;DHT22;12324;48.146;11.502;2022-08-19T02:06:34;18.10;99.90
24176;DHT22;12324;48.146;11.502;2022-08-19T02:09:01;18.20;99.90
24176;DHT22;12324;48.146;11.502;2022-08-19T02:11:31;18.10;99.90
24176;DHT22;12324;48.146;11.502;2022-08-19T02:14:02;18.20;99.90
24176;DHT22;12324;48.146;11.502;2022-08-19T02:16:29;18.10;99.90
24176;DHT22;12324;48.146;11.502;2022-08-19T02:18:57;18.10;99.90
24176;DHT22;12324;48.146;11.502;2022-08-19T02:21:28;18.10;99.90
24176;DHT22;12324;48.146;11.502;2022-08-19T02:23:55;18.10;99.90
24176;DHT22;12324;48.146;11.502;2022-08-19T02:26:22;18.10;99.90
24176;DHT22;12324;48.146;11.502;2022-08-19T02:28:49;18.10;99.90
24176;DHT22;12324;48.146;11.502;2022-08-19T02:31:18;18.10;99.90
24176;DHT22;12324;48.146;11.502;2022-08-19T02:33:46;18.10;99.90
24176;DHT22;12324;48.146;11.502;2022-08-19T02:36:15;18.10;99.90
24176;DHT22;12324;48.146;11.502;2022-08-19T02:38:46;18.10;99.90
24176;DHT22;12324;48.146;11.502;2022-08-19T02:41:24;18.10;99.90
24176;DHT22;12324;48.146;11.502;2022-08-19T02:43:53;18.10;99.90
24176;DHT22;12324;48.146;11.502;2022-08-19T02:46:40;18.10;99.90
24176;DHT22;12324;48.146;11.502;2022-08-19T02:49:07;18.10;99.90
24176;DHT22;12324;48.146;11.502;2022-08-19T02:51:40;18.10;99.90
24176;DHT22;12324;48.146;11.502;2022-08-19T02:54:09;18.00;99.90
24176;DHT22;12324;48.146;11.502;2022-08-19T02:56:38;18.00;99.90
24176;DHT22;12324;48.146;11.502;2022-08-19T02:59:06;18.00;99.90
24176;DHT22;12324;48.146;11.502;2022-08-19T03:01:37;17.90;99.90
24176;DHT22;12324;48.146;11.502;2022-08-19T03:04:07;17.90;99.90
24176;DHT22;12324;48.146;11.502;2022-08-19T03:06:38;17.90;99.90
24176;DHT22;12324;48.146;11.502;2022-08-19T03:09:05;18.00;99.90
24176;DHT22;12324;48.146;11.502;2022-08-19T03:11:32;18.00;99.90
24176;DHT22;12324;48.146;11.502;2022-08-19T03:14:00;18.00;99.90
24176;DHT22;12324;48.146;11.502;2022-08-19T03:16:39;18.00;99.90
24176;DHT22;12324;48.146;11.502;2022-08-19T03:19:06;18.00;99.90
24176;DHT22;12324;48.146;11.502;2022-08-19T03:21:33;18.00;99.90
24176;DHT22;12324;48.146;11.502;2022-08-19T03:24:03;18.00;99.90
24176;DHT22;12324;48.146;11.502;2022-08-19T03:26:31;18.00;99.90
24176;DHT22;12324;48.146;11.502;2022-08-19T03:29:01;18.00;99.90
24176;DHT22;12324;48.146;11.502;2022-08-19T03:31:31;18.00;99.90
24176;DHT22;12324;48.146;11.502;2022-08-19T03:34:23;18.10;99.90
24176;DHT22;12324;48.146;11.502;2022-08-19T03:36:54;18.10;99.90
24176;DHT22;12324;48.146;11.502;2022-08-19T03:39:22;18.10;99.90
24176;DHT22;12324;48.146;11.502;2022-08-19T03:41:51;18.10;99.90
24176;DHT22;12324;48.146;11.502;2022-08-19T03:44:38;18.20;99.90
24176;DHT22;12324;48.146;11.502;2022-08-19T03:47:05;18.20;99.90
24176;DHT22;12324;48.146;11.502;2022-08-19T03:49:33;18.20;99.90
24176;DHT22;12324;48.146;11.502;2022-08-19T03:52:03;18.10;99.90
24176;DHT22;12324;48.146;11.502;2022-08-19T03:54:31;18.10;99.90
24176;DHT22;12324;48.146;11.502;2022-08-19T03:56:58;18.10;99.90
24176;DHT22;12324;48.146;11.502;2022-08-19T03:59:32;18.00;99.90
24176;DHT22;12324;48.146;11.502;2022-08-19T04:02:01;18.10;99.90
24176;DHT22;12324;48.146;11.502;2022-08-19T04:04:28;18.10;99.90
24176;DHT22;12324;48.146;11.502;2022-08-19T04:06:57;18.10;99.90
24176;DHT22;12324;48.146;11.502;2022-08-19T04:09:24;18.10;99.90
24176;DHT22;12324;48.146;11.502;2022-08-19T04:11:55;18.00;99.90
24176;DHT22;12324;48.146;11.502;2022-08-19T04:14:24;18.00;99.90
24176;DHT22;12324;48.146;11.502;2022-08-19T04:16:52;18.00;99.90
24176;DHT22;12324;48.146;11.502;2022-08-19T04:19:20;18.00;99.90
24176;DHT22;12324;48.146;11.502;2022-08-19T04:21:51;17.90;99.90
24176;DHT22;12324;48.146;11.502;2022-08-19T04:24:19;17.90;99.90
24176;DHT22;12324;48.146;11.502;2022-08-19T04:26:47;17.90;99.90
24176;DHT22;12324;48.146;11.502;2022-08-19T04:29:20;18.00;99.90
24176;DHT22;12324;48.146;11.502;2022-08-19T04:31:48;18.00;99.90
24176;DHT22;12324;48.146;11.502;2022-08-19T04:34:17;18.00;99.90
24176;DHT22;12324;48.146;11.502;2022-08-19T04:36:45;18.00;99.90
24176;DHT22;12324;48.146;11.502;2022-08-19T04:39:15;18.00;99.90
24176;DHT22;12324;48.146;11.502;2022-08-19T04:41:43;18.10;99.90
24176;DHT22;12324;48.146;11.502;2022-08-19T04:44:31;18.10;99.90
24176;DHT22;12324;48.146;11.502;2022-08-19T04:46:59;18.10;99.90
24176;DHT22;12324;48.146;11.502;2022-08-19T04:49:27;18.10;99.90
24176;DHT22;12324;48.146;11.502;2022-08-19T04:51:54;18.10;99.90
24176;DHT22;12324;48.146;11.502;2022-08-19T04:54:23;18.10;99.90
24176;DHT22;12324;48.146;11.502;2022-08-19T04:57:08;18.20;99.90
24176;DHT22;12324;48.146;11.502;2022-08-19T04:59:37;18.20;99.90
24176;DHT22;12324;48.146;11.502;2022-08-19T05:02:07;18.20;99.90
24176;DHT22;12324;48.146;11.502;2022-08-19T05:04:34;18.20;99.90
24176;DHT22;12324;48.146;11.502;2022-08-19T05:07:01;18.20;99.90
24176;DHT22;12324;48.146;11.502;2022-08-19T05:09:29;18.10;99.90
24176;DHT22;12324;48.146;11.502;2022-08-19T05:12:17;18.10;99.90
24176;DHT22;12324;48.146;11.502;2022-08-19T05:14:45;18.20;99.90
24176;DHT22;12324;48.146;11.502;2022-08-19T05:17:14;18.20;99.90
24176;DHT22;12324;48.146;11.502;2022-08-19T05:20:02;18.10;99.90
24176;DHT22;12324;48.146;11.502;2022-08-19T05:22:47;18.20;99.90
24176;DHT22;12324;48.146;11.502;2022-08-19T05:25:18;18.20;99.90
24176;DHT22;12324;48.146;11.502;2022-08-19T05:27:45;18.20;99.90
24176;DHT22;12324;48.146;11.502;2022-08-19T05:30:12;18.20;99.90
24176;DHT22;12324;48.146;11.502;2022-08-19T05:32:40;18.20;99.90
24176;DHT22;12324;48.146;11.502;2022-08-19T05:35:07;18.30;99.90
24176;DHT22;12324;48.146;11.502;2022-08-19T05:37:34;18.30;99.90
24176;DHT22;12324;48.146;11.502;2022-08-19T05:40:01;18.20;99.90
24176;DHT22;12324;48.146;11.502;2022-08-19T05:42:28;18.40;99.90
24176;DHT22;12324;48.146;11.502;2022-08-19T05:44:54;18.40;99.90
24176;DHT22;12324;48.146;11.502;2022-08-19T05:47:23;18.40;99.90
24176;DHT22;12324;48.146;11.502;2022-08-19T05:49:49;18.30;99.90
24176;DHT22;12324;48.146;11.502;2022-08-19T05:52:17;18.30;99.90
24176;DHT22;12324;48.146;11.502;2022-08-19T05:54:45;18.30;99.90
24176;DHT22;12324;48.146;11.502;2022-08-19T05:57:18;18.30;99.90
24176;DHT22;12324;48.146;11.502;2022-08-19T05:59:45;18.30;99.90
24176;DHT22;12324;48.146;11.502;2022-08-19T06:02:18;18.40;99.90
24176;DHT22;12324;48.146;11.502;2022-08-19T06:04:45;18.30;99.90
24176;DHT22;12324;48.146;11.502;2022-08-19T06:07:12;18.30;99.90
24176;DHT22;12324;48.146;11.502;2022-08-19T06:09:39;18.40;99.90
24176;DHT22;12324;48.146;11.502;2022-08-19T06:12:09;18.50;99.90
24176;DHT22;12324;48.146;11.502;2022-08-19T06:14:36;18.50;99.90
24176;DHT22;12324;48.146;11.502;2022-08-19T06:17:07;18.50;99.90
24176;DHT22;12324;48.146;11.502;2022-08-19T06:19:34;18.50;99.90
24176;DHT22;12324;48.146;11.502;2022-08-19T06:22:07;18.60;99.90
24176;DHT22;12324;48.146;11.502;2022-08-19T06:24:34;18.70;99.90
24176;DHT22;12324;48.146;11.502;2022-08-19T06:27:02;18.70;99.90
24176;DHT22;12324;48.146;11.502;2022-08-19T06:29:29;18.60;99.90
24176;DHT22;12324;48.146;11.502;2022-08-19T06:31:58;18.60;99.90
24176;DHT22;12324;48.146;11.502;2022-08-19T06:34:26;18.50;99.90
24176;DHT22;12324;48.146;11.502;2022-08-19T06:36:55;18.50;99.90
24176;DHT22;12324;48.146;11.502;2022-08-19T06:39:28;18.50;99.90
24176;DHT22;12324;48.146;11.502;2022-08-19T06:41:58;18.50;99.90
24176;DHT22;12324;48.146;11.502;2022-08-19T06:44:28;18.50;99.90
24176;DHT22;12324;48.146;11.502;2022-08-19T06:46:57;18.50;99.90
24176;DHT22;12324;48.146;11.502;2022-08-19T06:49:24;18.50;99.90
24176;DHT22;12324;48.146;11.502;2022-08-19T06:51:51;18.50;99.90
24176;DHT22;12324;48.146;11.502;2022-08-19T06:54:18;18.50;99.90
24176;DHT22;12324;48.146;11.502;2022-08-19T06:56:46;18.60;99.90
24176;DHT22;12324;48.146;11.502;2022-08-19T06:59:19;18.50;99.90
24176;DHT22;12324;48.146;11.502;2022-08-19T07:01:51;18.60;99.90
24176;DHT22;12324;48.146;11.502;2022-08-19T07:04:21;18.70;99.90
24176;DHT22;12324;48.146;11.502;2022-08-19T07:06:49;18.60;99.90
24176;DHT22;12324;48.146;11.502;2022-08-19T07:09:21;18.60;99.90
24176;DHT22;12324;48.146;11.502;2022-08-19T07:11:49;18.60;99.90
24176;DHT22;12324;48.146;11.502;2022-08-19T07:14:19;18.60;99.90
24176;DHT22;12324;48.146;11.502;2022-08-19T07:16:48;18.60;99.90
24176;DHT22;12324;48.146;11.502;2022-08-19T07:19:17;18.60;99.90
24176;DHT22;12324;48.146;11.502;2022-08-19T07:21:48;18.60;99.90
24176;DHT22;12324;48.146;11.502;2022-08-19T07:24:16;18.70;99.90
24176;DHT22;12324;48.146;11.502;2022-08-19T07:26:43;18.70;99.90
24176;DHT22;12324;48.146;11.502;2022-08-19T07:29:12;18.70;99.90
24176;DHT22;12324;48.146;11.502;2022-08-19T10:45:53;18.80;99.90
24176;DHT22;12324;48.146;11.502;2022-08-19T13:32:29;19.80;99.90
24176;DHT22;12324;48.146;11.502;2022-08-19T13:57:34;22.30;99.90
24176;DHT22;12324;48.146;11.502;2022-08-19T14:00:03;20.80;99.90
24176;DHT22;12324;48.146;11.502;2022-08-19T14:02:30;20.90;99.90
24176;DHT22;12324;48.146;11.502;2022-08-19T14:04:57;21.20;99.90
24176;DHT22;12324;48.146;11.502;2022-08-19T14:17:21;21.70;99.90
24176;DHT22;12324;48.146;11.502;2022-08-19T14:19:48;23.30;99.90
24176;DHT22;12324;48.146;11.502;2022-08-19T14:22:15;23.20;99.90
24176;DHT22;12324;48.146;11.502;2022-08-19T15:27:32;23.40;99.90
24176;DHT22;12324;48.146;11.502;2022-08-19T15:30:00;18.80;99.90
24176;DHT22;12324;48.146;11.502;2022-08-19T15:32:27;18.60;99.90
24176;DHT22;12324;48.146;11.502;2022-08-19T15:34:54;18.40;99.90
24176;DHT22;12324;48.146;11.502;2022-08-19T15:37:21;18.30;99.90
24176;DHT22;12324;48.146;11.502;2022-08-19T15:39:49;18.20;99.90
24176;DHT22;12324;48.146;11.502;2022-08-19T15:42:16;18.30;99.90
24176;DHT22;12324;48.146;11.502;2022-08-19T15:44:56;18.40;99.90
24176;DHT22;12324;48.146;11.502;2022-08-19T15:47:28;18.40;99.90
24176;DHT22;12324;48.146;11.502;2022-08-19T15:50:18;18.40;99.90
24176;DHT22;12324;48.146;11.502;2022-08-19T15:52:47;18.40;99.90
24176;DHT22;12324;48.146;11.502;2022-08-19T15:55:18;18.50;99.90
24176;DHT22;12324;48.146;11.502;2022-08-19T15:58:00;18.40;99.90
24176;DHT22;12324;48.146;11.502;2022-08-19T16:00:56;18.50;99.90
24176;DHT22;12324;48.146;11.502;2022-08-19T16:03:46;18.60;99.90
24176;DHT22;12324;48.146;11.502;2022-08-19T16:06:51;18.70;99.90
24176;DHT22;12324;48.146;11.502;2022-08-19T16:09:19;18.70;99.90
24176;DHT22;12324;48.146;11.502;2022-08-19T16:11:53;18.80;99.90
24176;DHT22;12324;48.146;11.502;2022-08-19T16:14:28;18.80;99.90
24176;DHT22;12324;48.146;11.502;2022-08-19T16:16:55;18.80;99.90
24176;DHT22;12324;48.146;11.502;2022-08-19T16:19:24;18.80;99.90
24176;DHT22;12324;48.146;11.502;2022-08-19T16:21:53;18.80;99.90
24176;DHT22;12324;48.146;11.502;2022-08-19T16:24:23;18.70;99.90
24176;DHT22;12324;48.146;11.502;2022-08-19T16:26:50;18.50;99.90
24176;DHT22;12324;48.146;11.502;2022-08-19T16:29:18;18.50;99.90
24176;DHT22;12324;48.146;11.502;2022-08-19T16:31:59;18.50;99.90
24176;DHT22;12324;48.146;11.502;2022-08-19T16:34:29;18.60;99.90
24176;DHT22;12324;48.146;11.502;2022-08-19T16:36:56;18.60;99.90
24176;DHT22;12324;48.146;11.502;2022-08-19T16:39:23;18.60;99.90
24176;DHT22;12324;48.146;11.502;2022-08-19T16:41:50;18.50;99.90
24176;DHT22;12324;48.146;11.502;2022-08-19T16:44:17;18.40;99.90
24176;DHT22;12324;48.146;11.502;2022-08-19T16:46:46;18.40;99.90
24176;DHT22;12324;48.146;11.502;2022-08-19T16:49:28;18.50;99.90
24176;DHT22;12324;48.146;11.502;2022-08-19T16:52:16;18.40;99.90
24176;DHT22;12324;48.146;11.502;2022-08-19T16:54:43;18.30;99.90
24176;DHT22;12324;48.146;11.502;2022-08-19T16:57:11;18.30;99.90
24176;DHT22;12324;48.146;11.502;2022-08-19T16:59:38;18.30;99.90
24176;DHT22;12324;48.146;11.502;2022-08-19T17:02:14;18.30;99.90
24176;DHT22;12324;48.146;11.502;2022-08-19T17:04:41;18.30;99.90
24176;DHT22;12324;48.146;11.502;2022-08-19T17:07:08;18.30;99.90
24176;DHT22;12324;48.146;11.502;2022-08-19T17:09:35;18.40;99.90
24176;DHT22;12324;48.146;11.502;2022-08-19T17:12:04;18.50;99.90
24176;DHT22;12324;48.146;11.502;2022-08-19T17:14:31;18.50;99.90
24176;DHT22;12324;48.146;11.502;2022-08-19T17:16:57;18.60;99.90
24176;DHT22;12324;48.146;11.502;2022-08-19T17:19:24;18.60;99.90
24176;DHT22;12324;48.146;11.502;2022-08-19T17:21:52;18.70;99.90
24176;DHT22;12324;48.146;11.502;2022-08-19T17:24:19;18.60;99.90
24176;DHT22;12324;48.146;11.502;2022-08-19T17:26:46;18.50;99.90
24176;DHT22;12324;48.146;11.502;2022-08-19T17:29:12;18.50;99.90
24176;DHT22;12324;48.146;11.502;2022-08-19T17:31:39;18.50;99.90
24176;DHT22;12324;48.146;11.502;2022-08-19T17:34:06;18.40;99.90
24176;DHT22;12324;48.146;11.502;2022-08-19T17:36:35;18.40;99.90
24176;DHT22;12324;48.146;11.502;2022-08-19T17:39:02;18.40;99.90
24176;DHT22;12324;48.146;11.502;2022-08-19T17:41:30;18.30;99.90
24176;DHT22;12324;48.146;11.502;2022-08-19T17:44:00;18.20;99.90
24176;DHT22;12324;48.146;11.502;2022-08-19T17:46:27;18.20;99.90
24176;DHT22;12324;48.146;11.502;2022-08-19T17:48:56;18.20;99.90
24176;DHT22;12324;48.146;11.502;2022-08-19T17:51:37;18.10;99.90
24176;DHT22;12324;48.146;11.502;2022-08-19T17:54:11;18.00;99.90
24176;DHT22;12324;48.146;11.502;2022-08-19T17:56:38;17.90;99.90
24176;DHT22;12324;48.146;11.502;2022-08-19T17:59:05;17.80;99.90
24176;DHT22;12324;48.146;11.502;2022-08-19T18:01:43;17.80;99.90
24176;DHT22;12324;48.146;11.502;2022-08-19T18:04:23;17.80;99.90
24176;DHT22;12324;48.146;11.502;2022-08-19T18:06:51;17.80;99.90
24176;DHT22;12324;48.146;11.502;2022-08-19T18:09:25;17.80;99.90
24176;DHT22;12324;48.146;11.502;2022-08-19T18:11:54;17.70;99.90
24176;DHT22;12324;48.146;11.502;2022-08-19T18:14:22;17.70;99.90
24176;DHT22;12324;48.146;11.502;2022-08-19T18:17:05;17.60;99.90
24176;DHT22;12324;48.146;11.502;2022-08-19T18:19:36;17.70;99.90
24176;DHT22;12324;48.146;11.502;2022-08-19T18:22:12;17.60;99.90
24176;DHT22;12324;48.146;11.502;2022-08-19T18:24:40;17.60;99.90
24176;DHT22;12324;48.146;11.502;2022-08-19T18:27:07;17.60;99.90
24176;DHT22;12324;48.146;11.502;2022-08-19T18:29:35;17.60;99.90
24176;DHT22;12324;48.146;11.502;2022-08-19T18:32:04;17.60;99.90
24176;DHT22;12324;48.146;11.502;2022-08-19T18:34:35;17.60;99.90
24176;DHT22;12324;48.146;11.502;2022-08-19T18:37:02;17.60;99.90
24176;DHT22;12324;48.146;11.502;2022-08-19T18:39:28;17.60;99.90
24176;DHT22;12324;48.146;11.502;2022-08-19T18:42:16;17.60;99.90
24176;DHT22;12324;48.146;11.502;2022-08-19T18:45:03;17.70;99.90
24176;DHT22;12324;48.146;11.502;2022-08-19T18:47:49;17.60;99.90
24176;DHT22;12324;48.146;11.502;2022-08-19T18:50:56;17.60;99.90
24176;DHT22;12324;48.146;11.502;2022-08-19T18:53:29;17.60;99.90
24176;DHT22;12324;48.146;11.502;2022-08-19T18:55:56;17.60;99.90
24176;DHT22;12324;48.146;11.502;2022-08-19T18:58:29;17.40;99.90
24176;DHT22;12324;48.146;11.502;2022-08-19T19:01:02;17.30;99.90
24176;DHT22;12324;48.146;11.502;2022-08-19T19:03:32;17.40;99.90
24176;DHT22;12324;48.146;11.502;2022-08-19T19:05:59;17.40;99.90
24176;DHT22;12324;48.146;11.502;2022-08-19T19:08:26;17.30;99.90
24176;DHT22;12324;48.146;11.502;2022-08-19T19:10:54;17.30;99.90
24176;DHT22;12324;48.146;11.502;2022-08-19T19:13:22;17.30;99.90
24176;DHT22;12324;48.146;11.502;2022-08-19T19:15:49;17.20;99.90
24176;DHT22;12324;48.146;11.502;2022-08-19T19:18:16;17.20;99.90
24176;DHT22;12324;48.146;11.502;2022-08-19T19:20:43;17.20;99.90
24176;DHT22;12324;48.146;11.502;2022-08-19T19:23:10;17.20;99.90
24176;DHT22;12324;48.146;11.502;2022-08-19T19:25:37;17.20;99.90
24176;DHT22;12324;48.146;11.502;2022-08-19T19:28:18;17.20;99.90
24176;DHT22;12324;48.146;11.502;2022-08-19T19:30:49;17.20;99.90
24176;DHT22;12324;48.146;11.502;2022-08-19T19:33:16;17.20;99.90
24176;DHT22;12324;48.146;11.502;2022-08-19T19:35:43;17.10;99.90
24176;DHT22;12324;48.146;11.502;2022-08-19T19:38:13;17.10;99.90
24176;DHT22;12324;48.146;11.502;2022-08-19T19:40:39;17.10;99.90
24176;DHT22;12324;48.146;11.502;2022-08-19T19:43:06;17.10;99.90
24176;DHT22;12324;48.146;11.502;2022-08-19T19:45:34;17.10;99.90
24176;DHT22;12324;48.146;11.502;2022-08-19T19:48:00;17.00;99.90
24176;DHT22;12324;48.146;11.502;2022-08-19T19:50:27;17.00;99.90
24176;DHT22;12324;48.146;11.502;2022-08-19T19:52:55;16.90;99.90
24176;DHT22;12324;48.146;11.502;2022-08-19T19:55:22;16.90;99.90
24176;DHT22;12324;48.146;11.502;2022-08-19T19:57:52;16.90;99.90
24176;DHT22;12324;48.146;11.502;2022-08-19T20:00:20;16.90;99.90
24176;DHT22;12324;48.146;11.502;2022-08-19T20:02:48;16.90;99.90
24176;DHT22;12324;48.146;11.502;2022-08-19T20:05:17;16.90;99.90
24176;DHT22;12324;48.146;11.502;2022-08-19T20:07:46;16.90;99.90
24176;DHT22;12324;48.146;11.502;2022-08-19T20:10:31;16.90;99.90
24176;DHT22;12324;48.146;11.502;2022-08-19T20:13:00;16.90;99.90
24176;DHT22;12324;48.146;11.502;2022-08-19T20:15:30;16.90;99.90
24176;DHT22;12324;48.146;11.502;2022-08-19T20:17:59;16.90;99.90
24176;DHT22;12324;48.146;11.502;2022-08-19T20:20:27;16.90;99.90
24176;DHT22;12324;48.146;11.502;2022-08-19T20:22:54;16.90;99.90
24176;DHT22;12324;48.146;11.502;2022-08-19T20:25:21;16.90;99.90
24176;DHT22;12324;48.146;11.502;2022-08-19T20:27:49;16.90;99.90
24176;DHT22;12324;48.146;11.502;2022-08-19T20:30:19;16.90;99.90
24176;DHT22;12324;48.146;11.502;2022-08-19T20:32:47;16.90;99.90
24176;DHT22;12324;48.146;11.502;2022-08-19T20:35:19;16.90;99.90
24176;DHT22;12324;48.146;11.502;2022-08-19T20:37:46;16.90;99.90
24176;DHT22;12324;48.146;11.502;2022-08-19T20:40:14;16.90;99.90
24176;DHT22;12324;48.146;11.502;2022-08-19T20:42:47;16.90;99.90
24176;DHT22;12324;48.146;11.502;2022-08-19T20:45:15;17.00;99.90
24176;DHT22;12324;48.146;11.502;2022-08-19T20:47:58;17.00;99.90
24176;DHT22;12324;48.146;11.502;2022-08-19T20:50:28;17.00;99.90
24176;DHT22;12324;48.146;11.502;2022-08-19T20:52:56;17.00;99.90
24176;DHT22;12324;48.146;11.502;2022-08-19T20:55:23;17.00;99.90
24176;DHT22;12324;48.146;11.502;2022-08-19T20:57:50;17.00;99.90
24176;DHT22;12324;48.146;11.502;2022-08-19T21:00:17;17.00;99.90
24176;DHT22;12324;48.146;11.502;2022-08-19T21:02:44;17.10;99.90
24176;DHT22;12324;48.146;11.502;2022-08-19T21:05:12;17.10;99.90
24176;DHT22;12324;48.146;11.502;2022-08-19T21:07:39;17.20;99.90
24176;DHT22;12324;48.146;11.502;2022-08-19T21:10:06;17.10;99.90
24176;DHT22;12324;48.146;11.502;2022-08-19T21:12:33;17.00;99.90
24176;DHT22;12324;48.146;11.502;2022-08-19T21:15:00;17.00;99.90
24176;DHT22;12324;48.146;11.502;2022-08-19T21:17:27;17.00;99.90
24176;DHT22;12324;48.146;11.502;2022-08-19T21:19:53;17.00;99.90
24176;DHT22;12324;48.146;11.502;2022-08-19T21:22:20;17.10;99.90
24176;DHT22;12324;48.146;11.502;2022-08-19T21:24:46;17.00;99.90
24176;DHT22;12324;48.146;11.502;2022-08-19T21:27:13;17.00;99.90
24176;DHT22;12324;48.146;11.502;2022-08-19T21:29:40;17.00;99.90
24176;DHT22;12324;48.146;11.502;2022-08-19T21:32:07;17.00;99.90
24176;DHT22;12324;48.146;11.502;2022-08-19T21:34:40;17.00;99.90
24176;DHT22;12324;48.146;11.502;2022-08-19T21:37:12;17.00;99.90
24176;DHT22;12324;48.146;11.502;2022-08-19T21:39:50;17.00;99.90
24176;DHT22;12324;48.146;11.502;2022-08-19T21:42:17;17.00;99.90
24176;DHT22;12324;48.146;11.502;2022-08-19T21:44:43;17.00;99.90
24176;DHT22;12324;48.146;11.502;2022-08-19T21:47:11;17.00;99.90
24176;DHT22;12324;48.146;11.502;2022-08-19T21:49:38;16.90;99.90
24176;DHT22;12324;48.146;11.502;2022-08-19T21:52:05;17.00;99.90
24176;DHT22;12324;48.146;11.502;2022-08-19T21:54:32;17.00;99.90
24176;DHT22;12324;48.146;11.502;2022-08-19T21:57:05;17.00;99.90
24176;DHT22;12324;48.146;11.502;2022-08-19T21:59:39;17.00;99.90
24176;DHT22;12324;48.146;11.502;2022-08-19T22:02:11;16.90;99.90
24176;DHT22;12324;48.146;11.502;2022-08-19T22:04:48;16.90;99.90
24176;DHT22;12324;48.146;11.502;2022-08-19T22:07:16;16.90;99.90
24176;DHT22;12324;48.146;11.502;2022-08-19T22:09:45;17.00;99.90
24176;DHT22;12324;48.146;11.502;2022-08-19T22:12:25;17.00;99.90
24176;DHT22;12324;48.146;11.502;2022-08-19T22:14:53;17.00;99.90
24176;DHT22;12324;48.146;11.502;2022-08-19T22:17:20;16.90;99.90
24176;DHT22;12324;48.146;11.502;2022-08-19T22:19:48;17.00;99.90
24176;DHT22;12324;48.146;11.502;2022-08-19T22:22:28;17.00;99.90
24176;DHT22;12324;48.146;11.502;2022-08-19T22:25:02;17.10;99.90
24176;DHT22;12324;48.146;11.502;2022-08-19T22:27:29;17.10;99.90
24176;DHT22;12324;48.146;11.502;2022-08-19T22:29:56;17.10;99.90
24176;DHT22;12324;48.146;11.502;2022-08-19T22:32:23;17.10;99.90
24176;DHT22;12324;48.146;11.502;2022-08-19T22:34:57;17.10;99.90
24176;DHT22;12324;48.146;11.502;2022-08-19T22:37:25;17.10;99.90
24176;DHT22;12324;48.146;11.502;2022-08-19T22:39:52;17.10;99.90
24176;DHT22;12324;48.146;11.502;2022-08-19T22:42:20;17.10;99.90
24176;DHT22;12324;48.146;11.502;2022-08-19T22:44:47;17.10;99.90
24176;DHT22;12324;48.146;11.502;2022-08-19T22:47:14;17.10;99.90
24176;DHT22;12324;48.146;11.502;2022-08-19T22:49:43;17.10;99.90
24176;DHT22;12324;48.146;11.502;2022-08-19T22:52:10;17.10;99.90
24176;DHT22;12324;48.146;11.502;2022-08-19T22:54:49;17.10;99.90
24176;DHT22;12324;48.146;11.502;2022-08-19T22:57:16;17.10;99.90
24176;DHT22;12324;48.146;11.502;2022-08-19T22:59:46;17.10;99.90
24176;DHT22;12324;48.146;11.502;2022-08-19T23:02:32;17.10;99.90
24176;DHT22;12324;48.146;11.502;2022-08-19T23:05:06;17.10;99.90
24176;DHT22;12324;48.146;11.502;2022-08-19T23:07:33;17.10;99.90